TVF3217 GMTT-LFRS
Flight info
| Callsign | TVF3217 |
|---|---|
| Flight time | N/A |
| Altitude | 36000 |
| Route | BARPA DCT ALCOL N871 VTB N867 NENEM DCT YURZI UL14 TEPRA DCT EPIXO |
| Aircraft | B738/M-SDE2E3FGHIRWXY/LB1 |
Departure
| Time | 2026-04-19 19:28 |
|---|---|
| Airport | Tangier Ibn Battuta Airport (GMTT) |
Arrival
| Time | N/A |
|---|---|
| Airport | Nantes Atlantique Airport (LFRS) |
| Time | Latitude | Longitude | Altitude | Speed | Heading |
|---|---|---|---|---|---|
| 2026-04-19 19:07 | 35.72521 | -5.91250 | 59 ft | 0 kts | 355° |
| 2026-04-19 19:18 | 35.72519 | -5.91249 | 59 ft | 2 kts | 355° |
| 2026-04-19 19:18 | 35.72494 | -5.91247 | 57 ft | 4 kts | 355° |
| 2026-04-19 19:19 | 35.72470 | -5.91244 | 55 ft | 4 kts | 350° |
| 2026-04-19 19:19 | 35.72449 | -5.91233 | 57 ft | 4 kts | 292° |
| 2026-04-19 19:19 | 35.72446 | -5.91204 | 57 ft | 2 kts | 265° |
| 2026-04-19 19:20 | 35.72447 | -5.91197 | 56 ft | 0 kts | 265° |
| 2026-04-19 19:21 | 35.72446 | -5.91207 | 57 ft | 4 kts | 265° |
| 2026-04-19 19:21 | 35.72442 | -5.91276 | 57 ft | 12 kts | 266° |
| 2026-04-19 19:22 | 35.72434 | -5.91397 | 56 ft | 16 kts | 266° |
| 2026-04-19 19:22 | 35.72426 | -5.91540 | 59 ft | 17 kts | 268° |
| 2026-04-19 19:22 | 35.72474 | -5.91664 | 59 ft | 16 kts | 324° |
| 2026-04-19 19:22 | 35.72582 | -5.91693 | 59 ft | 16 kts | 356° |
| 2026-04-19 19:23 | 35.72689 | -5.91703 | 59 ft | 15 kts | 355° |
| 2026-04-19 19:23 | 35.72792 | -5.91712 | 59 ft | 15 kts | 356° |
| 2026-04-19 19:23 | 35.72891 | -5.91721 | 59 ft | 14 kts | 355° |
| 2026-04-19 19:23 | 35.72953 | -5.91795 | 57 ft | 14 kts | 282° |
| 2026-04-19 19:24 | 35.72965 | -5.91913 | 56 ft | 14 kts | 277° |
| 2026-04-19 19:24 | 35.72975 | -5.92025 | 56 ft | 13 kts | 276° |
| 2026-04-19 19:24 | 35.72985 | -5.92134 | 58 ft | 13 kts | 277° |
| 2026-04-19 19:24 | 35.72994 | -5.92240 | 58 ft | 12 kts | 276° |
| 2026-04-19 19:25 | 35.73006 | -5.92355 | 55 ft | 15 kts | 276° |
| 2026-04-19 19:25 | 35.73020 | -5.92508 | 59 ft | 21 kts | 277° |
| 2026-04-19 19:25 | 35.73038 | -5.92704 | 59 ft | 25 kts | 277° |
| 2026-04-19 19:25 | 35.73058 | -5.92912 | 59 ft | 24 kts | 277° |
| 2026-04-19 19:26 | 35.73077 | -5.93107 | 54 ft | 23 kts | 277° |
| 2026-04-19 19:26 | 35.73096 | -5.93296 | 59 ft | 22 kts | 277° |
| 2026-04-19 19:26 | 35.73111 | -5.93481 | 57 ft | 21 kts | 277° |
| 2026-04-19 19:26 | 35.73127 | -5.93659 | 57 ft | 21 kts | 276° |
| 2026-04-19 19:27 | 35.73144 | -5.93830 | 53 ft | 20 kts | 277° |
| 2026-04-19 19:27 | 35.73167 | -5.93996 | 56 ft | 19 kts | 297° |
| 2026-04-19 19:27 | 35.73281 | -5.94045 | 58 ft | 19 kts | 22° |
| 2026-04-19 19:27 | 35.73333 | -5.93925 | 61 ft | 16 kts | 96° |
| 2026-04-19 19:28 | 35.73304 | -5.93604 | 59 ft | 71 kts | 96° |
| 2026-04-19 19:28 | 35.73220 | -5.92723 | 58 ft | 133 kts | 96° |
| 2026-04-19 19:28 | 35.73086 | -5.91403 | 216 ft | 170 kts | 96° |
| 2026-04-19 19:28 | 35.72886 | -5.89923 | 905 ft | 176 kts | 99° |
| 2026-04-19 19:29 | 35.72758 | -5.88431 | 1700 ft | 181 kts | 97° |
| 2026-04-19 19:29 | 35.72626 | -5.86777 | 2011 ft | 207 kts | 96° |
| 2026-04-19 19:29 | 35.72476 | -5.84962 | 2434 ft | 219 kts | 96° |
| 2026-04-19 19:29 | 35.72316 | -5.83006 | 2665 ft | 241 kts | 96° |
| 2026-04-19 19:30 | 35.72341 | -5.80885 | 2955 ft | 261 kts | 74° |
| 2026-04-19 19:30 | 35.73283 | -5.78947 | 3671 ft | 267 kts | 48° |
| 2026-04-19 19:30 | 35.74613 | -5.77292 | 4385 ft | 276 kts | 45° |
| 2026-04-19 19:30 | 35.75990 | -5.75638 | 5099 ft | 283 kts | 46° |
| 2026-04-19 19:31 | 35.77410 | -5.73929 | 5861 ft | 288 kts | 46° |
| 2026-04-19 19:31 | 35.78848 | -5.72181 | 6631 ft | 291 kts | 46° |
| 2026-04-19 19:31 | 35.80282 | -5.70423 | 7455 ft | 290 kts | 46° |
| 2026-04-19 19:31 | 35.81718 | -5.68655 | 8182 ft | 294 kts | 45° |
| 2026-04-19 19:32 | 35.83204 | -5.66876 | 8864 ft | 301 kts | 39° |
| 2026-04-19 19:32 | 35.85029 | -5.65564 | 9537 ft | 305 kts | 23° |
| 2026-04-19 19:32 | 35.86997 | -5.64484 | 10131 ft | 316 kts | 22° |
| 2026-04-19 19:32 | 35.89067 | -5.63382 | 10464 ft | 334 kts | 22° |
| 2026-04-19 19:33 | 35.90512 | -5.62615 | 10568 ft | 349 kts | 22° |
| 2026-04-19 19:33 | 35.91580 | -5.62045 | 10663 ft | 359 kts | 22° |
| 2026-04-19 19:33 | 35.93930 | -5.60783 | 10903 ft | 376 kts | 23° |
| 2026-04-19 19:33 | 35.96329 | -5.59482 | 11309 ft | 387 kts | 23° |
| 2026-04-19 19:34 | 35.98847 | -5.58105 | 11810 ft | 393 kts | 22° |
| 2026-04-19 19:34 | 36.01321 | -5.56743 | 12494 ft | 395 kts | 23° |
| 2026-04-19 19:34 | 36.03849 | -5.55345 | 13060 ft | 400 kts | 24° |
| 2026-04-19 19:34 | 36.06383 | -5.53941 | 13913 ft | 398 kts | 23° |
| 2026-04-19 19:35 | 36.08919 | -5.52533 | 14519 ft | 403 kts | 23° |
| 2026-04-19 19:35 | 36.11485 | -5.51107 | 15146 ft | 405 kts | 23° |
| 2026-04-19 19:35 | 36.14070 | -5.49671 | 15802 ft | 408 kts | 24° |
| 2026-04-19 19:35 | 36.16674 | -5.48223 | 16397 ft | 412 kts | 24° |
| 2026-04-19 19:36 | 36.19309 | -5.46756 | 16996 ft | 416 kts | 23° |
| 2026-04-19 19:36 | 36.21921 | -5.45301 | 17684 ft | 416 kts | 23° |
| 2026-04-19 19:36 | 36.24575 | -5.43822 | 18342 ft | 419 kts | 23° |
| 2026-04-19 19:36 | 36.27247 | -5.42329 | 18836 ft | 422 kts | 24° |
| 2026-04-19 19:37 | 36.29929 | -5.40830 | 19458 ft | 424 kts | 23° |
| 2026-04-19 19:37 | 36.32637 | -5.39318 | 19878 ft | 430 kts | 23° |
| 2026-04-19 19:37 | 36.35378 | -5.37785 | 20330 ft | 434 kts | 22° |
| 2026-04-19 19:37 | 36.38147 | -5.36239 | 20849 ft | 436 kts | 23° |
| 2026-04-19 19:38 | 36.39978 | -5.35215 | 21261 ft | 436 kts | 22° |
| 2026-04-19 19:38 | 36.41332 | -5.34456 | 21485 ft | 438 kts | 22° |
| 2026-04-19 19:38 | 36.44121 | -5.32893 | 21909 ft | 442 kts | 23° |
| 2026-04-19 19:38 | 36.46895 | -5.31336 | 22402 ft | 443 kts | 23° |
| 2026-04-19 19:39 | 36.49720 | -5.29749 | 22892 ft | 446 kts | 23° |
| 2026-04-19 19:39 | 36.52553 | -5.28156 | 23326 ft | 448 kts | 23° |
| 2026-04-19 19:39 | 36.55407 | -5.26551 | 23739 ft | 451 kts | 23° |
| 2026-04-19 19:39 | 36.58278 | -5.24935 | 24080 ft | 454 kts | 23° |
| 2026-04-19 19:40 | 36.61168 | -5.23307 | 24421 ft | 457 kts | 23° |
| 2026-04-19 19:40 | 36.64073 | -5.21670 | 24762 ft | 460 kts | 23° |
| 2026-04-19 19:40 | 36.67001 | -5.20018 | 25101 ft | 463 kts | 23° |
| 2026-04-19 19:40 | 36.69911 | -5.18375 | 25423 ft | 466 kts | 23° |
| 2026-04-19 19:41 | 36.72871 | -5.16702 | 25764 ft | 468 kts | 23° |
| 2026-04-19 19:41 | 36.75852 | -5.15016 | 26072 ft | 471 kts | 23° |
| 2026-04-19 19:41 | 36.78847 | -5.13320 | 26382 ft | 473 kts | 23° |
| 2026-04-19 19:41 | 36.81857 | -5.11615 | 26685 ft | 476 kts | 23° |
| 2026-04-19 19:42 | 36.84883 | -5.09898 | 26977 ft | 478 kts | 23° |
| 2026-04-19 19:42 | 36.87920 | -5.08175 | 27269 ft | 481 kts | 23° |
| 2026-04-19 19:42 | 36.90980 | -5.06437 | 27548 ft | 484 kts | 23° |
| 2026-04-19 19:42 | 36.94057 | -5.04687 | 27809 ft | 486 kts | 23° |
| 2026-04-19 19:43 | 36.96099 | -5.03525 | 27992 ft | 487 kts | 23° |
| 2026-04-19 19:43 | 36.97441 | -5.02761 | 28115 ft | 488 kts | 23° |
| 2026-04-19 19:43 | 37.00547 | -5.00991 | 28442 ft | 489 kts | 23° |
| 2026-04-19 19:43 | 37.03645 | -4.99224 | 28836 ft | 488 kts | 23° |
| 2026-04-19 19:44 | 37.06739 | -4.97458 | 29279 ft | 487 kts | 23° |
| 2026-04-19 19:44 | 37.09819 | -4.95698 | 29682 ft | 487 kts | 23° |
| 2026-04-19 19:44 | 37.12865 | -4.93956 | 30039 ft | 487 kts | 23° |
| 2026-04-19 19:44 | 37.15948 | -4.92192 | 30350 ft | 487 kts | 23° |
| 2026-04-19 19:45 | 37.19029 | -4.90428 | 30703 ft | 486 kts | 23° |
| 2026-04-19 19:45 | 37.22097 | -4.88669 | 31094 ft | 484 kts | 23° |
| 2026-04-19 19:45 | 37.25162 | -4.86910 | 31464 ft | 483 kts | 23° |
| 2026-04-19 19:45 | 37.28215 | -4.85156 | 31799 ft | 482 kts | 23° |
| 2026-04-19 19:46 | 37.31263 | -4.83404 | 32127 ft | 482 kts | 22° |
| 2026-04-19 19:46 | 37.34309 | -4.81652 | 32466 ft | 480 kts | 22° |
| 2026-04-19 19:46 | 37.37351 | -4.79900 | 32811 ft | 479 kts | 22° |
| 2026-04-19 19:46 | 37.40380 | -4.78154 | 33163 ft | 478 kts | 22° |
| 2026-04-19 19:47 | 37.43405 | -4.76409 | 33499 ft | 477 kts | 22° |
| 2026-04-19 19:47 | 37.46419 | -4.74669 | 33835 ft | 476 kts | 22° |
| 2026-04-19 19:47 | 37.49432 | -4.72928 | 34139 ft | 476 kts | 22° |
| 2026-04-19 19:47 | 37.52434 | -4.71191 | 34394 ft | 475 kts | 22° |
| 2026-04-19 19:48 | 37.54430 | -4.70036 | 34545 ft | 476 kts | 22° |
| 2026-04-19 19:48 | 37.58869 | -4.67464 | 34887 ft | 476 kts | 22° |
| 2026-04-19 19:48 | 37.61875 | -4.65720 | 35128 ft | 476 kts | 22° |
| 2026-04-19 19:49 | 37.64885 | -4.63973 | 35352 ft | 476 kts | 22° |
| 2026-04-19 19:49 | 37.67893 | -4.62224 | 35569 ft | 476 kts | 22° |
| 2026-04-19 19:49 | 37.70905 | -4.60472 | 35789 ft | 476 kts | 22° |
| 2026-04-19 19:49 | 37.73914 | -4.58721 | 36025 ft | 476 kts | 22° |
| 2026-04-19 19:50 | 37.76934 | -4.56961 | 36027 ft | 479 kts | 22° |
| 2026-04-19 19:50 | 37.82995 | -4.53424 | 36037 ft | 478 kts | 22° |
| 2026-04-19 19:51 | 37.88990 | -4.50003 | 36047 ft | 473 kts | 21° |
| 2026-04-19 19:51 | 37.95069 | -4.46823 | 36043 ft | 471 kts | 20° |
| 2026-04-19 19:52 | 38.01131 | -4.43643 | 36042 ft | 470 kts | 20° |
| 2026-04-19 19:52 | 38.07131 | -4.40444 | 36050 ft | 470 kts | 20° |
| 2026-04-19 19:53 | 38.12144 | -4.37761 | 36059 ft | 470 kts | 21° |
| 2026-04-19 19:53 | 38.16585 | -4.35374 | 36062 ft | 471 kts | 21° |
| 2026-04-19 19:54 | 38.22608 | -4.32127 | 36053 ft | 473 kts | 21° |
| 2026-04-19 19:54 | 38.28676 | -4.28850 | 36057 ft | 474 kts | 21° |
| 2026-04-19 19:55 | 38.34774 | -4.25552 | 36058 ft | 475 kts | 21° |
| 2026-04-19 19:55 | 38.40866 | -4.22251 | 36066 ft | 476 kts | 21° |
| 2026-04-19 19:56 | 38.46968 | -4.18938 | 36059 ft | 476 kts | 21° |
| 2026-04-19 19:56 | 38.53022 | -4.15646 | 36061 ft | 476 kts | 21° |
| 2026-04-19 19:57 | 38.59125 | -4.12320 | 36076 ft | 476 kts | 21° |
| 2026-04-19 19:57 | 38.65232 | -4.08987 | 36069 ft | 477 kts | 21° |
| 2026-04-19 19:58 | 38.69317 | -4.06753 | 36065 ft | 477 kts | 21° |
| 2026-04-19 19:58 | 38.73716 | -4.04346 | 36060 ft | 477 kts | 21° |
| 2026-04-19 19:59 | 38.79821 | -4.01002 | 36065 ft | 476 kts | 21° |
| 2026-04-19 19:59 | 38.85917 | -3.97657 | 36062 ft | 476 kts | 21° |
| 2026-04-19 20:00 | 38.92012 | -3.94304 | 36062 ft | 476 kts | 21° |
| 2026-04-19 20:00 | 38.98075 | -3.90964 | 36060 ft | 476 kts | 21° |
| 2026-04-19 20:01 | 39.04174 | -3.87602 | 36063 ft | 476 kts | 21° |
| 2026-04-19 20:01 | 39.10233 | -3.84263 | 36066 ft | 476 kts | 21° |
| 2026-04-19 20:02 | 39.16345 | -3.80888 | 36061 ft | 477 kts | 21° |
| 2026-04-19 20:02 | 39.22454 | -3.77506 | 36062 ft | 477 kts | 21° |
| 2026-04-19 20:03 | 39.27526 | -3.74693 | 36067 ft | 478 kts | 21° |
| 2026-04-19 20:03 | 39.32017 | -3.72199 | 36081 ft | 478 kts | 21° |
| 2026-04-19 20:04 | 39.38144 | -3.68791 | 36066 ft | 479 kts | 21° |
| 2026-04-19 20:04 | 39.44273 | -3.65374 | 36066 ft | 479 kts | 21° |
| 2026-04-19 20:05 | 39.50358 | -3.61974 | 36064 ft | 479 kts | 21° |
| 2026-04-19 20:05 | 39.56481 | -3.58549 | 36072 ft | 478 kts | 21° |
| 2026-04-19 20:06 | 39.62586 | -3.55128 | 36050 ft | 478 kts | 21° |
| 2026-04-19 20:06 | 39.68693 | -3.51698 | 36058 ft | 477 kts | 21° |
| 2026-04-19 20:07 | 39.74793 | -3.48266 | 36062 ft | 477 kts | 21° |
| 2026-04-19 20:07 | 39.81030 | -3.45636 | 36057 ft | 471 kts | 6° |
| 2026-04-19 20:08 | 39.86411 | -3.44594 | 36052 ft | 470 kts | 5° |
| 2026-04-19 20:08 | 39.91017 | -3.43752 | 36059 ft | 470 kts | 5° |
| 2026-04-19 20:09 | 39.97452 | -3.42530 | 36053 ft | 470 kts | 5° |
| 2026-04-19 20:09 | 40.03934 | -3.41247 | 36051 ft | 469 kts | 5° |
| 2026-04-19 20:10 | 40.10354 | -3.39956 | 36051 ft | 469 kts | 5° |
| 2026-04-19 20:10 | 40.16803 | -3.38655 | 36052 ft | 468 kts | 5° |